sensor_id;sensor_type;location;lat;lon;timestamp;P1;durP1;ratioP1;P2;durP2;ratioP2
20090;SDS011;10205;49.678;6.560;2023-03-05T00:02:22;7.38;;;5.60;;
20090;SDS011;10205;49.678;6.560;2023-03-05T00:04:49;7.18;;;5.07;;
20090;SDS011;10205;49.678;6.560;2023-03-05T00:07:16;6.00;;;4.57;;
20090;SDS011;10205;49.678;6.560;2023-03-05T00:09:43;6.57;;;4.82;;
20090;SDS011;10205;49.678;6.560;2023-03-05T00:12:13;7.20;;;5.80;;
20090;SDS011;10205;49.678;6.560;2023-03-05T00:14:41;6.40;;;5.50;;
20090;SDS011;10205;49.678;6.560;2023-03-05T00:17:08;7.93;;;5.80;;
20090;SDS011;10205;49.678;6.560;2023-03-05T00:19:36;7.53;;;5.22;;
20090;SDS011;10205;49.678;6.560;2023-03-05T00:22:03;6.78;;;4.55;;
20090;SDS011;10205;49.678;6.560;2023-03-05T00:24:30;7.90;;;5.68;;
20090;SDS011;10205;49.678;6.560;2023-03-05T00:26:57;5.53;;;4.47;;
20090;SDS011;10205;49.678;6.560;2023-03-05T00:29:24;7.63;;;5.07;;
20090;SDS011;10205;49.678;6.560;2023-03-05T00:31:52;5.67;;;4.73;;
20090;SDS011;10205;49.678;6.560;2023-03-05T00:34:19;7.38;;;5.13;;
20090;SDS011;10205;49.678;6.560;2023-03-05T00:36:48;7.75;;;5.80;;
20090;SDS011;10205;49.678;6.560;2023-03-05T00:39:18;7.20;;;5.95;;
20090;SDS011;10205;49.678;6.560;2023-03-05T00:41:46;7.10;;;5.67;;
20090;SDS011;10205;49.678;6.560;2023-03-05T00:44:14;6.82;;;5.53;;
20090;SDS011;10205;49.678;6.560;2023-03-05T00:46:41;7.20;;;5.07;;
20090;SDS011;10205;49.678;6.560;2023-03-05T00:49:08;10.00;;;6.93;;
20090;SDS011;10205;49.678;6.560;2023-03-05T00:51:35;8.98;;;6.57;;
20090;SDS011;10205;49.678;6.560;2023-03-05T00:54:04;7.78;;;5.95;;
20090;SDS011;10205;49.678;6.560;2023-03-05T00:56:31;7.28;;;5.65;;
20090;SDS011;10205;49.678;6.560;2023-03-05T00:58:59;7.30;;;5.63;;
20090;SDS011;10205;49.678;6.560;2023-03-05T01:01:26;8.00;;;6.17;;
20090;SDS011;10205;49.678;6.560;2023-03-05T01:03:53;7.03;;;5.35;;
20090;SDS011;10205;49.678;6.560;2023-03-05T01:06:22;8.07;;;5.88;;
20090;SDS011;10205;49.678;6.560;2023-03-05T01:08:49;7.40;;;6.03;;
20090;SDS011;10205;49.678;6.560;2023-03-05T01:11:17;7.88;;;5.60;;
20090;SDS011;10205;49.678;6.560;2023-03-05T01:13:44;8.00;;;6.13;;
20090;SDS011;10205;49.678;6.560;2023-03-05T01:16:11;7.20;;;5.25;;
20090;SDS011;10205;49.678;6.560;2023-03-05T01:18:38;6.18;;;4.85;;
20090;SDS011;10205;49.678;6.560;2023-03-05T01:21:07;6.35;;;5.18;;
20090;SDS011;10205;49.678;6.560;2023-03-05T01:23:34;8.07;;;6.10;;
20090;SDS011;10205;49.678;6.560;2023-03-05T01:26:02;6.45;;;5.57;;
20090;SDS011;10205;49.678;6.560;2023-03-05T01:28:31;6.43;;;5.67;;
20090;SDS011;10205;49.678;6.560;2023-03-05T01:30:58;7.10;;;6.20;;
20090;SDS011;10205;49.678;6.560;2023-03-05T01:33:28;9.07;;;6.63;;
20090;SDS011;10205;49.678;6.560;2023-03-05T01:35:56;7.25;;;5.85;;
20090;SDS011;10205;49.678;6.560;2023-03-05T01:38:23;6.57;;;5.10;;
20090;SDS011;10205;49.678;6.560;2023-03-05T01:40:50;7.55;;;5.63;;
20090;SDS011;10205;49.678;6.560;2023-03-05T01:43:21;6.77;;;6.07;;
20090;SDS011;10205;49.678;6.560;2023-03-05T01:49:02;7.90;;;5.70;;
20090;SDS011;10205;49.678;6.560;2023-03-05T01:51:37;7.10;;;5.97;;
20090;SDS011;10205;49.678;6.560;2023-03-05T01:54:09;7.27;;;5.87;;
20090;SDS011;10205;49.678;6.560;2023-03-05T01:56:40;7.43;;;5.88;;
20090;SDS011;10205;49.678;6.560;2023-03-05T01:59:11;7.70;;;5.40;;
20090;SDS011;10205;49.678;6.560;2023-03-05T02:01:41;7.93;;;6.25;;
20090;SDS011;10205;49.678;6.560;2023-03-05T02:04:16;7.37;;;6.03;;
20090;SDS011;10205;49.678;6.560;2023-03-05T02:06:44;8.87;;;6.23;;
20090;SDS011;10205;49.678;6.560;2023-03-05T02:09:13;5.88;;;5.10;;
20090;SDS011;10205;49.678;6.560;2023-03-05T02:11:40;6.90;;;5.60;;
20090;SDS011;10205;49.678;6.560;2023-03-05T02:14:08;6.87;;;6.07;;
20090;SDS011;10205;49.678;6.560;2023-03-05T02:16:35;6.53;;;5.77;;
20090;SDS011;10205;49.678;6.560;2023-03-05T02:19:06;8.10;;;6.07;;
20090;SDS011;10205;49.678;6.560;2023-03-05T02:21:39;7.37;;;6.37;;
20090;SDS011;10205;49.678;6.560;2023-03-05T02:24:11;7.90;;;5.90;;
20090;SDS011;10205;49.678;6.560;2023-03-05T02:26:39;7.60;;;6.67;;
20090;SDS011;10205;49.678;6.560;2023-03-05T02:29:09;8.80;;;6.40;;
20090;SDS011;10205;49.678;6.560;2023-03-05T02:31:42;8.13;;;5.90;;
20090;SDS011;10205;49.678;6.560;2023-03-05T02:34:09;8.23;;;5.93;;
20090;SDS011;10205;49.678;6.560;2023-03-05T02:36:36;7.53;;;5.80;;
20090;SDS011;10205;49.678;6.560;2023-03-05T02:39:05;8.63;;;6.57;;
20090;SDS011;10205;49.678;6.560;2023-03-05T02:41:33;6.07;;;5.47;;
20090;SDS011;10205;49.678;6.560;2023-03-05T02:44:00;7.90;;;6.57;;
20090;SDS011;10205;49.678;6.560;2023-03-05T02:46:27;6.20;;;5.40;;
20090;SDS011;10205;49.678;6.560;2023-03-05T02:48:55;7.70;;;5.67;;
20090;SDS011;10205;49.678;6.560;2023-03-05T02:51:22;6.57;;;5.87;;
20090;SDS011;10205;49.678;6.560;2023-03-05T02:53:50;7.10;;;5.60;;
20090;SDS011;10205;49.678;6.560;2023-03-05T02:56:19;7.33;;;5.83;;
20090;SDS011;10205;49.678;6.560;2023-03-05T02:58:46;8.27;;;6.30;;
20090;SDS011;10205;49.678;6.560;2023-03-05T03:01:13;8.37;;;6.33;;
20090;SDS011;10205;49.678;6.560;2023-03-05T03:03:40;9.02;;;6.85;;
20090;SDS011;10205;49.678;6.560;2023-03-05T03:06:07;6.17;;;5.50;;
20090;SDS011;10205;49.678;6.560;2023-03-05T03:08:34;9.63;;;5.57;;
20090;SDS011;10205;49.678;6.560;2023-03-05T03:11:06;6.87;;;5.63;;
20090;SDS011;10205;49.678;6.560;2023-03-05T03:13:38;7.50;;;5.87;;
20090;SDS011;10205;49.678;6.560;2023-03-05T03:16:07;8.25;;;5.90;;
20090;SDS011;10205;49.678;6.560;2023-03-05T03:18:36;8.40;;;5.67;;
20090;SDS011;10205;49.678;6.560;2023-03-05T03:21:03;7.38;;;6.13;;
20090;SDS011;10205;49.678;6.560;2023-03-05T03:23:31;8.13;;;6.10;;
20090;SDS011;10205;49.678;6.560;2023-03-05T03:25:59;7.73;;;6.20;;
20090;SDS011;10205;49.678;6.560;2023-03-05T03:28:27;7.65;;;5.80;;
20090;SDS011;10205;49.678;6.560;2023-03-05T03:30:54;6.83;;;5.70;;
20090;SDS011;10205;49.678;6.560;2023-03-05T03:33:23;9.13;;;6.90;;
20090;SDS011;10205;49.678;6.560;2023-03-05T03:35:50;6.83;;;6.10;;
20090;SDS011;10205;49.678;6.560;2023-03-05T03:38:17;6.67;;;5.80;;
20090;SDS011;10205;49.678;6.560;2023-03-05T03:40:47;7.60;;;6.10;;
20090;SDS011;10205;49.678;6.560;2023-03-05T03:43:14;8.33;;;6.50;;
20090;SDS011;10205;49.678;6.560;2023-03-05T03:45:43;5.97;;;5.37;;
20090;SDS011;10205;49.678;6.560;2023-03-05T03:48:10;9.53;;;7.03;;
20090;SDS011;10205;49.678;6.560;2023-03-05T03:50:37;7.60;;;5.73;;
20090;SDS011;10205;49.678;6.560;2023-03-05T03:53:05;7.77;;;5.90;;
20090;SDS011;10205;49.678;6.560;2023-03-05T03:55:38;7.05;;;5.50;;
20090;SDS011;10205;49.678;6.560;2023-03-05T03:58:08;5.90;;;5.30;;
20090;SDS011;10205;49.678;6.560;2023-03-05T04:00:35;7.78;;;5.78;;
20090;SDS011;10205;49.678;6.560;2023-03-05T04:03:04;7.40;;;6.00;;
20090;SDS011;10205;49.678;6.560;2023-03-05T04:05:31;8.10;;;5.87;;
20090;SDS011;10205;49.678;6.560;2023-03-05T04:07:58;7.53;;;6.43;;
20090;SDS011;10205;49.678;6.560;2023-03-05T04:10:25;7.60;;;6.13;;
20090;SDS011;10205;49.678;6.560;2023-03-05T04:12:52;9.20;;;6.00;;
20090;SDS011;10205;49.678;6.560;2023-03-05T04:15:19;7.57;;;6.77;;
20090;SDS011;10205;49.678;6.560;2023-03-05T04:17:46;7.90;;;6.00;;
20090;SDS011;10205;49.678;6.560;2023-03-05T04:22:43;7.60;;;5.97;;
20090;SDS011;10205;49.678;6.560;2023-03-05T04:25:10;8.10;;;6.33;;
20090;SDS011;10205;49.678;6.560;2023-03-05T04:27:41;7.00;;;6.10;;
20090;SDS011;10205;49.678;6.560;2023-03-05T04:30:12;7.88;;;6.00;;
20090;SDS011;10205;49.678;6.560;2023-03-05T04:32:40;7.27;;;6.10;;
20090;SDS011;10205;49.678;6.560;2023-03-05T04:35:07;7.23;;;6.00;;
20090;SDS011;10205;49.678;6.560;2023-03-05T04:37:36;9.57;;;6.03;;
20090;SDS011;10205;49.678;6.560;2023-03-05T04:40:03;7.25;;;5.78;;
20090;SDS011;10205;49.678;6.560;2023-03-05T04:42:31;7.67;;;5.87;;
20090;SDS011;10205;49.678;6.560;2023-03-05T04:44:58;9.00;;;6.90;;
20090;SDS011;10205;49.678;6.560;2023-03-05T04:47:25;7.32;;;5.85;;
20090;SDS011;10205;49.678;6.560;2023-03-05T04:49:54;7.20;;;6.05;;
20090;SDS011;10205;49.678;6.560;2023-03-05T04:52:21;7.57;;;6.07;;
20090;SDS011;10205;49.678;6.560;2023-03-05T04:54:50;6.68;;;5.57;;
20090;SDS011;10205;49.678;6.560;2023-03-05T04:57:18;7.32;;;5.68;;
20090;SDS011;10205;49.678;6.560;2023-03-05T04:59:45;7.03;;;5.63;;
20090;SDS011;10205;49.678;6.560;2023-03-05T05:02:16;8.07;;;5.83;;
20090;SDS011;10205;49.678;6.560;2023-03-05T05:04:43;7.63;;;6.07;;
20090;SDS011;10205;49.678;6.560;2023-03-05T05:07:10;7.50;;;5.72;;
20090;SDS011;10205;49.678;6.560;2023-03-05T05:09:37;6.87;;;6.00;;
20090;SDS011;10205;49.678;6.560;2023-03-05T05:12:07;6.40;;;5.63;;
20090;SDS011;10205;49.678;6.560;2023-03-05T05:14:35;7.53;;;5.53;;
20090;SDS011;10205;49.678;6.560;2023-03-05T05:17:03;6.05;;;5.25;;
20090;SDS011;10205;49.678;6.560;2023-03-05T05:19:30;6.83;;;5.60;;
20090;SDS011;10205;49.678;6.560;2023-03-05T05:22:00;6.23;;;5.40;;
20090;SDS011;10205;49.678;6.560;2023-03-05T05:24:28;6.77;;;5.80;;
20090;SDS011;10205;49.678;6.560;2023-03-05T05:26:55;6.37;;;5.20;;
20090;SDS011;10205;49.678;6.560;2023-03-05T05:29:23;7.70;;;5.20;;
20090;SDS011;10205;49.678;6.560;2023-03-05T05:31:50;6.90;;;5.27;;
20090;SDS011;10205;49.678;6.560;2023-03-05T05:34:18;7.07;;;5.67;;
20090;SDS011;10205;49.678;6.560;2023-03-05T05:36:45;9.37;;;5.90;;
20090;SDS011;10205;49.678;6.560;2023-03-05T05:39:12;8.05;;;6.35;;
20090;SDS011;10205;49.678;6.560;2023-03-05T05:41:41;7.22;;;5.47;;
20090;SDS011;10205;49.678;6.560;2023-03-05T05:44:08;6.53;;;5.07;;
20090;SDS011;10205;49.678;6.560;2023-03-05T05:46:38;8.43;;;5.87;;
20090;SDS011;10205;49.678;6.560;2023-03-05T05:49:05;6.90;;;5.43;;
20090;SDS011;10205;49.678;6.560;2023-03-05T05:51:33;6.70;;;5.37;;
20090;SDS011;10205;49.678;6.560;2023-03-05T05:54:00;6.97;;;5.37;;
20090;SDS011;10205;49.678;6.560;2023-03-05T05:56:27;7.63;;;5.53;;
20090;SDS011;10205;49.678;6.560;2023-03-05T05:58:54;5.88;;;5.03;;
20090;SDS011;10205;49.678;6.560;2023-03-05T06:01:22;6.00;;;5.43;;
20090;SDS011;10205;49.678;6.560;2023-03-05T06:03:53;6.80;;;5.60;;
20090;SDS011;10205;49.678;6.560;2023-03-05T06:06:21;5.67;;;5.00;;
20090;SDS011;10205;49.678;6.560;2023-03-05T06:08:50;7.05;;;4.90;;
20090;SDS011;10205;49.678;6.560;2023-03-05T06:11:18;7.17;;;5.37;;
20090;SDS011;10205;49.678;6.560;2023-03-05T06:13:46;5.87;;;5.10;;
20090;SDS011;10205;49.678;6.560;2023-03-05T06:16:15;6.77;;;5.00;;
20090;SDS011;10205;49.678;6.560;2023-03-05T06:18:46;6.40;;;5.23;;
20090;SDS011;10205;49.678;6.560;2023-03-05T06:21:15;12.17;;;6.00;;
20090;SDS011;10205;49.678;6.560;2023-03-05T06:23:44;6.00;;;5.40;;
20090;SDS011;10205;49.678;6.560;2023-03-05T06:26:13;5.50;;;4.97;;
20090;SDS011;10205;49.678;6.560;2023-03-05T06:28:42;7.87;;;5.37;;
20090;SDS011;10205;49.678;6.560;2023-03-05T06:31:11;5.80;;;4.93;;
20090;SDS011;10205;49.678;6.560;2023-03-05T06:33:41;6.03;;;5.18;;
20090;SDS011;10205;49.678;6.560;2023-03-05T06:36:09;7.47;;;5.13;;
20090;SDS011;10205;49.678;6.560;2023-03-05T06:38:40;6.93;;;4.88;;
20090;SDS011;10205;49.678;6.560;2023-03-05T06:41:08;5.10;;;4.60;;
20090;SDS011;10205;49.678;6.560;2023-03-05T06:43:38;5.63;;;4.67;;
20090;SDS011;10205;49.678;6.560;2023-03-05T06:46:09;5.97;;;4.80;;
20090;SDS011;10205;49.678;6.560;2023-03-05T06:48:39;5.77;;;4.73;;
20090;SDS011;10205;49.678;6.560;2023-03-05T06:51:11;6.90;;;5.00;;
20090;SDS011;10205;49.678;6.560;2023-03-05T06:53:41;4.93;;;4.23;;
20090;SDS011;10205;49.678;6.560;2023-03-05T06:56:09;7.33;;;4.80;;
20090;SDS011;10205;49.678;6.560;2023-03-05T06:58:38;5.10;;;4.60;;
20090;SDS011;10205;49.678;6.560;2023-03-05T07:01:08;6.13;;;4.60;;
20090;SDS011;10205;49.678;6.560;2023-03-05T07:03:35;6.13;;;4.30;;
20090;SDS011;10205;49.678;6.560;2023-03-05T07:06:08;6.20;;;4.75;;
20090;SDS011;10205;49.678;6.560;2023-03-05T07:08:38;6.43;;;4.90;;
20090;SDS011;10205;49.678;6.560;2023-03-05T07:11:09;5.57;;;4.37;;
20090;SDS011;10205;49.678;6.560;2023-03-05T07:13:37;6.88;;;4.35;;
20090;SDS011;10205;49.678;6.560;2023-03-05T07:16:05;6.17;;;4.83;;
20090;SDS011;10205;49.678;6.560;2023-03-05T07:18:33;7.60;;;4.70;;
20090;SDS011;10205;49.678;6.560;2023-03-05T07:21:01;4.47;;;4.03;;
20090;SDS011;10205;49.678;6.560;2023-03-05T07:23:29;4.90;;;4.40;;
20090;SDS011;10205;49.678;6.560;2023-03-05T07:26:00;4.80;;;4.30;;
20090;SDS011;10205;49.678;6.560;2023-03-05T07:28:29;7.53;;;4.97;;
20090;SDS011;10205;49.678;6.560;2023-03-05T07:30:58;6.47;;;4.70;;
20090;SDS011;10205;49.678;6.560;2023-03-05T07:33:27;4.23;;;3.83;;
20090;SDS011;10205;49.678;6.560;2023-03-05T07:35:55;4.43;;;4.03;;
20090;SDS011;10205;49.678;6.560;2023-03-05T07:38:22;6.30;;;4.70;;
20090;SDS011;10205;49.678;6.560;2023-03-05T07:40:49;5.40;;;4.03;;
20090;SDS011;10205;49.678;6.560;2023-03-05T07:43:16;6.00;;;4.27;;
20090;SDS011;10205;49.678;6.560;2023-03-05T07:45:45;5.67;;;4.30;;
20090;SDS011;10205;49.678;6.560;2023-03-05T07:48:12;4.80;;;4.30;;
20090;SDS011;10205;49.678;6.560;2023-03-05T07:50:41;6.13;;;4.40;;
20090;SDS011;10205;49.678;6.560;2023-03-05T07:53:09;5.70;;;4.53;;
20090;SDS011;10205;49.678;6.560;2023-03-05T07:55:40;4.83;;;4.17;;
20090;SDS011;10205;49.678;6.560;2023-03-05T07:58:09;4.87;;;4.20;;
20090;SDS011;10205;49.678;6.560;2023-03-05T08:00:36;6.43;;;4.27;;
20090;SDS011;10205;49.678;6.560;2023-03-05T08:03:05;4.50;;;4.00;;
20090;SDS011;10205;49.678;6.560;2023-03-05T08:05:32;4.47;;;3.97;;
20090;SDS011;10205;49.678;6.560;2023-03-05T08:08:00;4.50;;;4.10;;
20090;SDS011;10205;49.678;6.560;2023-03-05T08:10:27;6.40;;;4.87;;
20090;SDS011;10205;49.678;6.560;2023-03-05T08:12:54;7.20;;;4.13;;
20090;SDS011;10205;49.678;6.560;2023-03-05T08:15:22;5.90;;;4.23;;
20090;SDS011;10205;49.678;6.560;2023-03-05T08:17:49;5.57;;;4.83;;
20090;SDS011;10205;49.678;6.560;2023-03-05T08:20:17;4.97;;;4.47;;
20090;SDS011;10205;49.678;6.560;2023-03-05T08:22:45;5.47;;;4.37;;
20090;SDS011;10205;49.678;6.560;2023-03-05T08:25:12;5.73;;;5.10;;
20090;SDS011;10205;49.678;6.560;2023-03-05T08:27:39;5.67;;;4.70;;
20090;SDS011;10205;49.678;6.560;2023-03-05T08:30:10;5.20;;;4.37;;
20090;SDS011;10205;49.678;6.560;2023-03-05T08:32:40;5.67;;;4.37;;
20090;SDS011;10205;49.678;6.560;2023-03-05T08:35:07;5.03;;;4.27;;
20090;SDS011;10205;49.678;6.560;2023-03-05T08:37:37;6.00;;;4.20;;
20090;SDS011;10205;49.678;6.560;2023-03-05T08:40:04;6.83;;;4.10;;
20090;SDS011;10205;49.678;6.560;2023-03-05T08:42:32;7.57;;;4.90;;
20090;SDS011;10205;49.678;6.560;2023-03-05T08:45:00;7.23;;;4.70;;
20090;SDS011;10205;49.678;6.560;2023-03-05T08:47:27;5.17;;;4.37;;
20090;SDS011;10205;49.678;6.560;2023-03-05T08:49:54;5.93;;;4.30;;
20090;SDS011;10205;49.678;6.560;2023-03-05T08:52:22;5.30;;;3.83;;
20090;SDS011;10205;49.678;6.560;2023-03-05T08:54:52;5.60;;;4.20;;
20090;SDS011;10205;49.678;6.560;2023-03-05T08:57:19;5.60;;;4.30;;
20090;SDS011;10205;49.678;6.560;2023-03-05T08:59:46;4.77;;;4.00;;
20090;SDS011;10205;49.678;6.560;2023-03-05T09:02:14;8.03;;;4.73;;
20090;SDS011;10205;49.678;6.560;2023-03-05T09:04:41;5.00;;;4.13;;
20090;SDS011;10205;49.678;6.560;2023-03-05T09:07:08;6.07;;;4.37;;
20090;SDS011;10205;49.678;6.560;2023-03-05T09:09:35;5.20;;;4.20;;
20090;SDS011;10205;49.678;6.560;2023-03-05T09:12:04;5.93;;;4.50;;
20090;SDS011;10205;49.678;6.560;2023-03-05T09:14:31;5.43;;;4.30;;
20090;SDS011;10205;49.678;6.560;2023-03-05T09:17:01;4.63;;;3.90;;
20090;SDS011;10205;49.678;6.560;2023-03-05T09:19:28;6.10;;;4.37;;
20090;SDS011;10205;49.678;6.560;2023-03-05T09:21:55;5.60;;;4.90;;
20090;SDS011;10205;49.678;6.560;2023-03-05T09:24:22;4.97;;;3.97;;
20090;SDS011;10205;49.678;6.560;2023-03-05T09:27:01;6.77;;;4.77;;
20090;SDS011;10205;49.678;6.560;2023-03-05T09:29:32;5.97;;;4.23;;
20090;SDS011;10205;49.678;6.560;2023-03-05T09:31:59;6.17;;;4.40;;
20090;SDS011;10205;49.678;6.560;2023-03-05T09:34:26;4.33;;;3.93;;
20090;SDS011;10205;49.678;6.560;2023-03-05T09:36:53;5.80;;;4.50;;
20090;SDS011;10205;49.678;6.560;2023-03-05T09:39:20;5.78;;;4.03;;
20090;SDS011;10205;49.678;6.560;2023-03-05T09:41:54;5.17;;;4.07;;
20090;SDS011;10205;49.678;6.560;2023-03-05T09:44:54;5.47;;;4.40;;
20090;SDS011;10205;49.678;6.560;2023-03-05T09:47:41;5.53;;;4.23;;
20090;SDS011;10205;49.678;6.560;2023-03-05T09:53:07;6.80;;;4.33;;
20090;SDS011;10205;49.678;6.560;2023-03-05T09:55:46;6.80;;;4.77;;
20090;SDS011;10205;49.678;6.560;2023-03-05T09:58:18;5.20;;;4.30;;
20090;SDS011;10205;49.678;6.560;2023-03-05T10:01:00;4.63;;;4.17;;
20090;SDS011;10205;49.678;6.560;2023-03-05T10:03:34;4.40;;;4.00;;
20090;SDS011;10205;49.678;6.560;2023-03-05T10:06:16;6.60;;;4.00;;
20090;SDS011;10205;49.678;6.560;2023-03-05T10:08:52;5.43;;;3.97;;
20090;SDS011;10205;49.678;6.560;2023-03-05T10:14:17;4.43;;;3.70;;
20090;SDS011;10205;49.678;6.560;2023-03-05T10:17:03;4.57;;;3.37;;
20090;SDS011;10205;49.678;6.560;2023-03-05T10:23:04;6.17;;;4.03;;
20090;SDS011;10205;49.678;6.560;2023-03-05T10:25:52;4.93;;;3.60;;
20090;SDS011;10205;49.678;6.560;2023-03-05T10:28:32;6.43;;;3.40;;
20090;SDS011;10205;49.678;6.560;2023-03-05T10:31:12;4.10;;;3.10;;
20090;SDS011;10205;49.678;6.560;2023-03-05T10:34:00;3.50;;;3.20;;
20090;SDS011;10205;49.678;6.560;2023-03-05T10:36:52;4.20;;;3.63;;
20090;SDS011;10205;49.678;6.560;2023-03-05T10:39:58;3.53;;;3.23;;
20090;SDS011;10205;49.678;6.560;2023-03-05T10:42:39;3.80;;;3.17;;
20090;SDS011;10205;49.678;6.560;2023-03-05T10:45:20;3.00;;;2.80;;
20090;SDS011;10205;49.678;6.560;2023-03-05T10:47:54;3.43;;;2.87;;
20090;SDS011;10205;49.678;6.560;2023-03-05T10:50:32;3.07;;;2.77;;
20090;SDS011;10205;49.678;6.560;2023-03-05T10:53:11;2.47;;;2.27;;
20090;SDS011;10205;49.678;6.560;2023-03-05T10:55:48;2.73;;;2.43;;
20090;SDS011;10205;49.678;6.560;2023-03-05T10:58:20;2.50;;;2.30;;
20090;SDS011;10205;49.678;6.560;2023-03-05T11:00:58;2.13;;;1.93;;
20090;SDS011;10205;49.678;6.560;2023-03-05T11:03:51;2.30;;;2.10;;
20090;SDS011;10205;49.678;6.560;2023-03-05T11:09:20;1.95;;;1.80;;
20090;SDS011;10205;49.678;6.560;2023-03-05T11:12:03;2.27;;;1.70;;
20090;SDS011;10205;49.678;6.560;2023-03-05T11:14:41;2.03;;;1.93;;
20090;SDS011;10205;49.678;6.560;2023-03-05T11:17:30;2.10;;;1.97;;
20090;SDS011;10205;49.678;6.560;2023-03-05T11:20:22;2.43;;;2.20;;
20090;SDS011;10205;49.678;6.560;2023-03-05T11:23:02;2.30;;;1.90;;
20090;SDS011;10205;49.678;6.560;2023-03-05T11:25:46;2.43;;;2.23;;
20090;SDS011;10205;49.678;6.560;2023-03-05T11:28:23;1.90;;;1.80;;
20090;SDS011;10205;49.678;6.560;2023-03-05T11:30:56;3.50;;;1.90;;
20090;SDS011;10205;49.678;6.560;2023-03-05T11:33:32;2.53;;;2.13;;
20090;SDS011;10205;49.678;6.560;2023-03-05T11:36:10;1.87;;;1.77;;
20090;SDS011;10205;49.678;6.560;2023-03-05T11:38:53;1.90;;;1.80;;
20090;SDS011;10205;49.678;6.560;2023-03-05T11:41:26;1.73;;;1.63;;
20090;SDS011;10205;49.678;6.560;2023-03-05T11:44:03;2.77;;;1.83;;
20090;SDS011;10205;49.678;6.560;2023-03-05T11:46:42;1.42;;;1.33;;
20090;SDS011;10205;49.678;6.560;2023-03-05T11:49:13;1.90;;;1.73;;
20090;SDS011;10205;49.678;6.560;2023-03-05T11:51:47;1.73;;;1.63;;
20090;SDS011;10205;49.678;6.560;2023-03-05T11:54:27;1.65;;;1.55;;
20090;SDS011;10205;49.678;6.560;2023-03-05T11:57:01;1.97;;;1.50;;
20090;SDS011;10205;49.678;6.560;2023-03-05T11:59:34;1.80;;;1.50;;
20090;SDS011;10205;49.678;6.560;2023-03-05T12:02:08;1.75;;;1.50;;
20090;SDS011;10205;49.678;6.560;2023-03-05T12:04:45;1.60;;;1.50;;
20090;SDS011;10205;49.678;6.560;2023-03-05T12:07:14;1.67;;;1.50;;
20090;SDS011;10205;49.678;6.560;2023-03-05T12:09:49;1.80;;;1.70;;
20090;SDS011;10205;49.678;6.560;2023-03-05T12:15:23;1.53;;;1.43;;
20090;SDS011;10205;49.678;6.560;2023-03-05T12:18:08;1.50;;;1.40;;
20090;SDS011;10205;49.678;6.560;2023-03-05T12:20:47;2.95;;;1.40;;
20090;SDS011;10205;49.678;6.560;2023-03-05T12:23:28;1.43;;;1.33;;
20090;SDS011;10205;49.678;6.560;2023-03-05T12:26:13;1.50;;;1.40;;
20090;SDS011;10205;49.678;6.560;2023-03-05T12:28:56;2.45;;;1.60;;
20090;SDS011;10205;49.678;6.560;2023-03-05T12:31:37;1.55;;;1.17;;
20090;SDS011;10205;49.678;6.560;2023-03-05T12:40:23;1.53;;;1.33;;
20090;SDS011;10205;49.678;6.560;2023-03-05T12:42:57;1.80;;;1.30;;
20090;SDS011;10205;49.678;6.560;2023-03-05T12:45:31;2.40;;;1.60;;
20090;SDS011;10205;49.678;6.560;2023-03-05T12:51:10;2.13;;;1.40;;
20090;SDS011;10205;49.678;6.560;2023-03-05T12:53:39;1.50;;;1.40;;
20090;SDS011;10205;49.678;6.560;2023-03-05T12:56:14;1.50;;;1.40;;
20090;SDS011;10205;49.678;6.560;2023-03-05T12:58:50;1.50;;;1.40;;
20090;SDS011;10205;49.678;6.560;2023-03-05T13:01:34;1.95;;;1.77;;
20090;SDS011;10205;49.678;6.560;2023-03-05T13:04:12;1.85;;;1.75;;
20090;SDS011;10205;49.678;6.560;2023-03-05T13:06:45;1.63;;;1.52;;
20090;SDS011;10205;49.678;6.560;2023-03-05T13:09:22;3.55;;;2.47;;
20090;SDS011;10205;49.678;6.560;2023-03-05T13:11:53;2.47;;;1.80;;
20090;SDS011;10205;49.678;6.560;2023-03-05T13:14:27;1.30;;;1.20;;
20090;SDS011;10205;49.678;6.560;2023-03-05T13:17:19;1.70;;;1.60;;
20090;SDS011;10205;49.678;6.560;2023-03-05T13:19:57;1.77;;;1.50;;
20090;SDS011;10205;49.678;6.560;2023-03-05T13:22:30;1.60;;;1.40;;
20090;SDS011;10205;49.678;6.560;2023-03-05T13:25:08;1.50;;;1.30;;
20090;SDS011;10205;49.678;6.560;2023-03-05T13:27:44;1.92;;;1.40;;
20090;SDS011;10205;49.678;6.560;2023-03-05T13:30:20;1.70;;;1.60;;
20090;SDS011;10205;49.678;6.560;2023-03-05T13:32:50;1.60;;;1.50;;
20090;SDS011;10205;49.678;6.560;2023-03-05T13:35:22;3.05;;;1.60;;
20090;SDS011;10205;49.678;6.560;2023-03-05T13:37:50;1.67;;;1.50;;
20090;SDS011;10205;49.678;6.560;2023-03-05T13:40:19;2.00;;;1.70;;
20090;SDS011;10205;49.678;6.560;2023-03-05T13:42:49;1.45;;;1.35;;
20090;SDS011;10205;49.678;6.560;2023-03-05T13:45:23;1.92;;;1.70;;
20090;SDS011;10205;49.678;6.560;2023-03-05T13:47:54;1.63;;;1.52;;
20090;SDS011;10205;49.678;6.560;2023-03-05T13:50:25;1.70;;;1.60;;
20090;SDS011;10205;49.678;6.560;2023-03-05T13:52:54;2.35;;;1.42;;
20090;SDS011;10205;49.678;6.560;2023-03-05T13:55:42;2.58;;;1.50;;
20090;SDS011;10205;49.678;6.560;2023-03-05T14:01:20;1.30;;;1.10;;
20090;SDS011;10205;49.678;6.560;2023-03-05T14:03:54;1.40;;;1.30;;
20090;SDS011;10205;49.678;6.560;2023-03-05T14:06:25;1.30;;;1.20;;
20090;SDS011;10205;49.678;6.560;2023-03-05T14:08:56;1.40;;;1.30;;
20090;SDS011;10205;49.678;6.560;2023-03-05T14:11:34;1.55;;;1.40;;
20090;SDS011;10205;49.678;6.560;2023-03-05T14:14:06;1.30;;;1.20;;
20090;SDS011;10205;49.678;6.560;2023-03-05T14:16:43;1.48;;;1.33;;
20090;SDS011;10205;49.678;6.560;2023-03-05T14:19:25;1.30;;;1.23;;
20090;SDS011;10205;49.678;6.560;2023-03-05T14:22:00;2.00;;;1.30;;
20090;SDS011;10205;49.678;6.560;2023-03-05T14:24:30;1.92;;;1.60;;
20090;SDS011;10205;49.678;6.560;2023-03-05T14:26:58;1.90;;;1.50;;
20090;SDS011;10205;49.678;6.560;2023-03-05T14:29:29;1.60;;;1.27;;
20090;SDS011;10205;49.678;6.560;2023-03-05T14:32:01;2.05;;;1.30;;
20090;SDS011;10205;49.678;6.560;2023-03-05T14:34:32;1.40;;;1.30;;
20090;SDS011;10205;49.678;6.560;2023-03-05T14:37:02;1.55;;;1.33;;
20090;SDS011;10205;49.678;6.560;2023-03-05T14:39:43;1.40;;;1.30;;
20090;SDS011;10205;49.678;6.560;2023-03-05T14:42:23;2.17;;;1.45;;
20090;SDS011;10205;49.678;6.560;2023-03-05T14:44:55;3.17;;;1.50;;
20090;SDS011;10205;49.678;6.560;2023-03-05T14:47:26;1.70;;;1.50;;
20090;SDS011;10205;49.678;6.560;2023-03-05T14:49:55;1.30;;;1.20;;
20090;SDS011;10205;49.678;6.560;2023-03-05T14:52:22;1.58;;;1.40;;
20090;SDS011;10205;49.678;6.560;2023-03-05T14:54:51;2.22;;;1.25;;
20090;SDS011;10205;49.678;6.560;2023-03-05T14:57:20;2.85;;;1.35;;
20090;SDS011;10205;49.678;6.560;2023-03-05T14:59:52;1.80;;;1.13;;
20090;SDS011;10205;49.678;6.560;2023-03-05T15:02:21;1.40;;;1.30;;
20090;SDS011;10205;49.678;6.560;2023-03-05T15:04:51;1.02;;;1.02;;
20090;SDS011;10205;49.678;6.560;2023-03-05T15:07:19;1.65;;;1.20;;
20090;SDS011;10205;49.678;6.560;2023-03-05T15:09:51;1.73;;;1.30;;
20090;SDS011;10205;49.678;6.560;2023-03-05T15:12:18;2.10;;;1.30;;
20090;SDS011;10205;49.678;6.560;2023-03-05T15:14:48;1.23;;;1.10;;
20090;SDS011;10205;49.678;6.560;2023-03-05T15:17:17;1.23;;;1.20;;
20090;SDS011;10205;49.678;6.560;2023-03-05T15:19:48;1.75;;;1.45;;
20090;SDS011;10205;49.678;6.560;2023-03-05T15:22:18;4.30;;;1.50;;
20090;SDS011;10205;49.678;6.560;2023-03-05T15:24:47;2.75;;;1.17;;
20090;SDS011;10205;49.678;6.560;2023-03-05T15:27:14;1.40;;;1.30;;
20090;SDS011;10205;49.678;6.560;2023-03-05T15:29:41;1.42;;;1.30;;
20090;SDS011;10205;49.678;6.560;2023-03-05T15:32:08;1.40;;;1.30;;
20090;SDS011;10205;49.678;6.560;2023-03-05T15:34:35;1.50;;;1.40;;
20090;SDS011;10205;49.678;6.560;2023-03-05T15:37:04;1.30;;;1.20;;
20090;SDS011;10205;49.678;6.560;2023-03-05T15:39:31;1.60;;;1.50;;
20090;SDS011;10205;49.678;6.560;2023-03-05T15:41:58;1.38;;;1.27;;
20090;SDS011;10205;49.678;6.560;2023-03-05T15:44:25;2.03;;;1.42;;